Time;durP1;ratioP1;P1;durP2;ratioP2;P2;SDS_P1;SDS_P2;PMS_P1;PMS_P2;Temp;Humidity;BMP_temperature;BMP_pressure;BME280_temperature;BME280_humidity;BME280_pressure;Samples;Min_cycle;Max_cycle;Signal;HPM_P1;HPM_P2
2022/10/22 00:01:19;;;;;;;15.60;7.95;;;13.70;99.90;;;;;;4947373;28;20049;-59
2022/10/22 00:03:45;;;;;;;19.65;8.40;;;13.60;99.90;;;;;;4944961;28;20055;-59
2022/10/22 00:06:10;;;;;;;17.88;8.18;;;13.60;99.90;;;;;;4944018;28;20055;-59
2022/10/22 00:08:36;;;;;;;14.70;7.53;;;13.60;99.90;;;;;;4947918;28;20410;-59
2022/10/22 00:11:13;;;;;;;15.68;7.97;;;13.60;99.90;;;;;;4948416;28;20070;-59
2022/10/22 00:13:39;;;;;;;13.90;8.15;;;13.50;99.90;;;;;;4947202;28;20517;-60
2022/10/22 00:16:05;;;;;;;13.80;8.30;;;13.50;99.90;;;;;;4949562;28;20505;-59
2022/10/22 00:18:31;;;;;;;12.13;8.15;;;13.50;99.90;;;;;;4949624;28;20048;-59
2022/10/22 00:20:56;;;;;;;13.60;8.18;;;13.50;99.90;;;;;;4943681;28;20062;-60
2022/10/22 00:23:22;;;;;;;11.77;7.85;;;13.40;99.90;;;;;;4946951;28;20051;-59
2022/10/22 00:25:48;;;;;;;14.65;8.07;;;13.40;99.90;;;;;;4945871;28;20042;-60
2022/10/22 00:28:14;;;;;;;12.77;7.63;;;13.40;99.90;;;;;;4950532;28;20047;-59
2022/10/22 00:30:40;;;;;;;13.18;8.05;;;13.40;99.90;;;;;;4954151;28;20047;-59
2022/10/22 00:33:06;;;;;;;11.13;8.35;;;13.40;99.90;;;;;;4948376;28;20058;-60
2022/10/22 00:35:32;;;;;;;9.90;7.68;;;13.40;99.90;;;;;;4946607;28;20414;-59
2022/10/22 00:37:57;;;;;;;14.93;7.57;;;13.40;99.90;;;;;;4945331;28;20048;-58
2022/10/22 00:40:24;;;;;;;11.00;7.50;;;13.30;99.90;;;;;;4948085;28;20494;-57
2022/10/22 00:42:50;;;;;;;11.75;7.93;;;13.30;99.90;;;;;;4948533;28;20110;-58
2022/10/22 00:45:23;;;;;;;14.15;7.78;;;13.30;99.90;;;;;;4946092;28;20059;-59
2022/10/22 00:48:05;;;;;;;16.33;7.72;;;13.30;99.90;;;;;;4949749;28;20102;-59
2022/10/22 00:50:37;;;;;;;13.88;7.68;;;13.30;99.90;;;;;;4947485;28;20054;-59
2022/10/22 00:53:05;;;;;;;14.07;7.75;;;13.20;99.90;;;;;;4951105;28;20046;-59
2022/10/22 00:55:32;;;;;;;17.13;7.57;;;13.20;99.90;;;;;;4946268;28;20058;-59
2022/10/22 00:57:58;;;;;;;11.60;7.55;;;13.20;99.90;;;;;;4945742;28;20449;-58
2022/10/22 01:00:25;;;;;;;10.95;7.28;;;13.20;99.90;;;;;;4933181;28;20131;-58
2022/10/22 01:02:52;;;;;;;17.88;7.65;;;13.20;99.90;;;;;;4946053;28;20063;-59
2022/10/22 01:05:18;;;;;;;12.50;7.70;;;13.20;99.90;;;;;;4945292;28;20051;-59
2022/10/22 01:07:48;;;;;;;12.75;7.53;;;13.10;99.90;;;;;;4944058;28;20449;-59
2022/10/22 01:10:37;;;;;;;10.20;8.13;;;13.10;99.90;;;;;;4943531;28;20565;-59
2022/10/22 01:13:09;;;;;;;10.15;7.47;;;13.10;99.90;;;;;;4950091;28;20062;-58
2022/10/22 01:15:52;;;;;;;10.33;7.87;;;13.10;99.90;;;;;;4945717;28;20083;-59
2022/10/22 01:18:57;;;;;;;12.15;7.72;;;13.10;99.90;;;;;;4952465;28;20369;-59
2022/10/22 01:21:39;;;;;;;18.90;8.27;;;13.10;99.90;;;;;;4955383;28;20850;-59
2022/10/22 01:24:20;;;;;;;14.00;7.75;;;13.10;99.90;;;;;;4946391;28;20081;-59
2022/10/22 01:27:11;;;;;;;13.00;8.70;;;13.00;99.90;;;;;;4945019;28;20055;-58
2022/10/22 01:29:46;;;;;;;13.05;8.60;;;13.00;99.90;;;;;;4944307;28;20039;-59
2022/10/22 01:32:18;;;;;;;15.57;8.40;;;13.00;99.90;;;;;;4944271;28;20141;-59
2022/10/22 01:34:51;;;;;;;17.30;8.95;;;13.00;99.90;;;;;;4952184;28;20046;-59
2022/10/22 01:37:19;;;;;;;15.98;8.60;;;13.00;99.90;;;;;;4951365;28;20486;-58
2022/10/22 01:39:47;;;;;;;17.02;8.57;;;13.00;99.90;;;;;;4949448;28;20345;-59
2022/10/22 01:42:13;;;;;;;13.88;8.10;;;12.90;99.90;;;;;;4949714;28;20128;-59
2022/10/22 01:44:39;;;;;;;16.45;8.77;;;12.90;99.90;;;;;;4952077;28;20031;-59
2022/10/22 01:47:05;;;;;;;13.52;8.50;;;12.90;99.90;;;;;;4947162;28;20081;-59
2022/10/22 01:49:55;;;;;;;12.82;9.10;;;12.90;99.90;;;;;;4954745;28;20047;-58
2022/10/22 01:52:58;;;;;;;11.40;7.72;;;12.90;99.90;;;;;;4950564;28;20121;-57
2022/10/22 01:55:47;;;;;;;10.82;7.88;;;12.90;99.90;;;;;;4950295;28;20080;-59
2022/10/22 01:58:23;;;;;;;15.63;8.60;;;12.90;99.90;;;;;;4947787;28;20046;-59
2022/10/22 02:01:02;;;;;;;17.48;8.60;;;12.90;99.90;;;;;;4949386;28;20047;-58
2022/10/22 02:03:54;;;;;;;16.05;8.43;;;12.90;99.90;;;;;;4949465;28;20058;-59
2022/10/22 02:06:23;;;;;;;14.57;7.90;;;12.90;99.90;;;;;;4951210;28;20051;-59
2022/10/22 02:08:51;;;;;;;12.95;7.93;;;12.90;99.90;;;;;;4948673;28;20042;-59
2022/10/22 02:11:18;;;;;;;11.85;7.75;;;12.90;99.90;;;;;;4936212;28;20047;-58
2022/10/22 02:13:50;;;;;;;15.55;8.07;;;12.90;99.90;;;;;;4949280;28;20047;-60
2022/10/22 02:16:29;;;;;;;12.82;7.60;;;12.90;99.90;;;;;;4951071;28;20046;-59
2022/10/22 02:18:59;;;;;;;14.27;7.60;;;12.90;99.90;;;;;;4948088;28;20050;-59
2022/10/22 02:21:26;;;;;;;12.15;7.35;;;12.80;99.90;;;;;;4949048;28;20086;-59
2022/10/22 02:23:52;;;;;;;14.73;8.35;;;12.90;99.90;;;;;;4951025;28;20078;-59
2022/10/22 02:26:24;;;;;;;12.80;7.63;;;12.90;99.90;;;;;;4957085;28;20430;-59
2022/10/22 02:29:22;;;;;;;9.85;7.30;;;12.90;99.90;;;;;;4948679;28;20054;-59
2022/10/22 02:31:50;;;;;;;11.05;8.25;;;12.90;99.90;;;;;;4916257;28;20079;-59
2022/10/22 02:34:22;;;;;;;15.77;8.27;;;12.90;99.90;;;;;;4949598;28;20057;-58
2022/10/22 02:36:49;;;;;;;17.75;8.50;;;12.90;99.90;;;;;;4950412;28;20145;-59
2022/10/22 02:39:16;;;;;;;14.82;8.50;;;12.90;99.90;;;;;;4948468;28;20062;-59
2022/10/22 02:41:42;;;;;;;16.65;7.68;;;12.90;99.90;;;;;;4949603;28;20126;-59
2022/10/22 02:44:09;;;;;;;16.45;8.23;;;12.90;99.90;;;;;;4950224;28;20145;-60
2022/10/22 02:46:39;;;;;;;17.95;8.20;;;12.90;99.90;;;;;;4949501;28;20053;-59
2022/10/22 02:49:05;;;;;;;13.25;8.70;;;12.90;99.90;;;;;;4949529;28;20051;-59
2022/10/22 02:51:31;;;;;;;12.20;8.20;;;12.90;99.90;;;;;;4953157;28;20486;-58
2022/10/22 02:53:56;;;;;;;18.13;8.00;;;12.90;99.90;;;;;;4948996;28;20066;-59
2022/10/22 02:56:22;;;;;;;12.18;8.02;;;12.90;99.90;;;;;;4951334;28;20059;-59
2022/10/22 02:58:48;;;;;;;14.27;8.25;;;12.90;99.90;;;;;;4949310;28;20047;-59
2022/10/22 03:01:14;;;;;;;12.80;8.13;;;12.90;99.90;;;;;;4950237;28;20081;-59
2022/10/22 03:03:40;;;;;;;15.05;8.90;;;12.90;99.90;;;;;;4951411;28;20081;-59
2022/10/22 03:06:06;;;;;;;17.88;8.77;;;13.00;99.90;;;;;;4948385;28;20066;-59
2022/10/22 03:08:31;;;;;;;15.45;8.65;;;13.00;99.90;;;;;;4949952;28;20050;-59
2022/10/22 03:10:57;;;;;;;17.58;8.40;;;13.00;99.90;;;;;;4948677;28;20105;-59
2022/10/22 03:13:23;;;;;;;12.65;8.27;;;13.00;99.90;;;;;;4948489;28;20138;-59
2022/10/22 03:15:50;;;;;;;13.52;7.95;;;13.00;99.90;;;;;;4948612;28;20051;-58
2022/10/22 03:18:16;;;;;;;14.18;8.15;;;13.00;99.90;;;;;;4949210;28;20564;-59
2022/10/22 03:20:42;;;;;;;10.77;8.18;;;13.00;99.90;;;;;;4948570;28;20482;-59
2022/10/22 03:23:10;;;;;;;15.52;8.77;;;13.00;99.90;;;;;;4948132;28;20059;-59
2022/10/22 03:25:39;;;;;;;14.13;8.07;;;12.90;99.90;;;;;;4949795;28;20047;-60
2022/10/22 03:28:09;;;;;;;15.85;7.60;;;13.00;99.90;;;;;;4949670;28;20054;-59
2022/10/22 03:30:35;;;;;;;18.08;8.27;;;12.90;99.90;;;;;;4947639;28;20051;-59
2022/10/22 03:33:01;;;;;;;11.85;7.78;;;12.90;99.90;;;;;;4947710;28;20050;-58
2022/10/22 03:35:27;;;;;;;12.13;8.50;;;12.90;99.90;;;;;;4946482;28;20042;-59
2022/10/22 03:37:53;;;;;;;16.48;8.25;;;12.90;99.90;;;;;;4948849;28;20050;-59
2022/10/22 03:40:19;;;;;;;15.85;7.80;;;12.90;99.90;;;;;;4948578;28;20644;-59
2022/10/22 03:42:46;;;;;;;13.18;8.10;;;12.90;99.90;;;;;;4948872;28;20416;-59
2022/10/22 03:45:11;;;;;;;13.15;7.97;;;12.80;99.90;;;;;;4946291;28;20072;-59
2022/10/22 03:47:37;;;;;;;13.52;8.02;;;12.80;99.90;;;;;;4945717;28;20042;-59
2022/10/22 03:50:04;;;;;;;13.23;8.15;;;12.80;99.90;;;;;;4937060;28;20165;-59
2022/10/22 03:52:36;;;;;;;11.57;7.75;;;12.80;99.90;;;;;;4947783;28;20055;-59
2022/10/22 03:55:02;;;;;;;12.65;8.30;;;12.80;99.90;;;;;;4947663;28;20409;-59
2022/10/22 03:57:28;;;;;;;14.63;8.15;;;12.70;99.90;;;;;;4948107;28;20053;-59
2022/10/22 03:59:53;;;;;;;14.10;8.32;;;12.70;99.90;;;;;;4948317;28;20042;-59
2022/10/22 04:02:19;;;;;;;17.08;8.73;;;12.70;99.90;;;;;;4946525;28;20077;-59
2022/10/22 04:04:45;;;;;;;17.45;8.13;;;12.70;99.90;;;;;;4951714;28;20073;-57
2022/10/22 04:07:11;;;;;;;12.70;8.40;;;12.70;99.90;;;;;;4950415;28;20834;-59
2022/10/22 04:09:36;;;;;;;13.18;8.43;;;12.70;99.90;;;;;;4948620;28;20508;-59
2022/10/22 04:12:04;;;;;;;14.10;8.45;;;12.70;99.90;;;;;;4947276;28;20643;-59
2022/10/22 04:14:30;;;;;;;17.85;8.57;;;12.70;99.90;;;;;;4947081;28;20117;-59
2022/10/22 04:16:56;;;;;;;16.88;8.55;;;12.70;99.90;;;;;;4944766;28;20494;-58
2022/10/22 04:19:22;;;;;;;16.25;8.13;;;12.70;99.90;;;;;;4950100;28;20605;-59
2022/10/22 04:21:48;;;;;;;18.70;8.52;;;12.70;99.90;;;;;;4954945;28;20047;-59
2022/10/22 04:24:14;;;;;;;16.85;8.55;;;12.70;99.90;;;;;;4955469;28;20093;-59
2022/10/22 04:26:40;;;;;;;11.40;7.63;;;12.60;99.90;;;;;;4954292;28;20034;-58
2022/10/22 04:29:07;;;;;;;13.77;8.50;;;12.60;99.90;;;;;;4955754;28;20051;-59
2022/10/22 04:31:33;;;;;;;16.17;9.07;;;12.60;99.90;;;;;;4953648;28;20081;-59
2022/10/22 04:34:00;;;;;;;15.80;8.75;;;12.60;99.90;;;;;;4951287;28;20125;-58
2022/10/22 04:36:27;;;;;;;16.77;8.60;;;12.60;99.90;;;;;;4946494;28;20043;-59
2022/10/22 04:38:58;;;;;;;14.13;8.27;;;12.60;99.90;;;;;;4946367;28;20066;-60
2022/10/22 04:41:34;;;;;;;15.25;8.43;;;12.60;99.90;;;;;;4946376;28;20062;-58
2022/10/22 04:44:00;;;;;;;14.43;8.95;;;12.60;99.90;;;;;;4946006;28;20047;-58
2022/10/22 04:46:30;;;;;;;14.63;8.80;;;12.60;99.90;;;;;;4946394;28;20047;-59
2022/10/22 04:48:55;;;;;;;14.70;8.80;;;12.60;99.90;;;;;;4946215;28;20110;-58
2022/10/22 04:51:23;;;;;;;17.63;9.55;;;12.60;99.90;;;;;;4946880;28;20047;-59
2022/10/22 04:53:49;;;;;;;12.77;8.57;;;12.60;99.90;;;;;;4947620;28;20210;-59
2022/10/22 04:56:20;;;;;;;18.80;8.77;;;12.60;99.90;;;;;;4947911;28;20065;-59
2022/10/22 04:58:55;;;;;;;19.55;9.15;;;12.60;99.90;;;;;;4946507;28;20047;-59
2022/10/22 05:01:32;;;;;;;14.10;9.35;;;12.60;99.90;;;;;;4949492;28;20054;-59
2022/10/22 05:04:00;;;;;;;21.02;9.45;;;12.70;99.90;;;;;;4945082;28;20058;-59
2022/10/22 05:06:27;;;;;;;15.10;9.05;;;12.60;99.90;;;;;;4951844;28;20149;-58
2022/10/22 05:08:55;;;;;;;14.55;8.63;;;12.60;99.90;;;;;;4951536;28;20051;-59
2022/10/22 05:11:24;;;;;;;20.90;9.93;;;12.60;99.90;;;;;;4952047;28;20046;-59
2022/10/22 05:13:50;;;;;;;17.23;9.75;;;12.60;99.90;;;;;;4951561;28;20114;-59
2022/10/22 05:16:16;;;;;;;14.82;10.02;;;12.60;99.90;;;;;;4952137;28;20047;-59
2022/10/22 05:18:43;;;;;;;17.45;9.80;;;12.60;99.90;;;;;;4950681;28;20049;-59
2022/10/22 05:21:19;;;;;;;18.58;10.20;;;12.60;99.90;;;;;;4950777;28;20215;-59
2022/10/22 05:23:47;;;;;;;12.40;8.55;;;12.60;99.90;;;;;;4950168;28;20137;-59
2022/10/22 05:26:15;;;;;;;14.93;9.68;;;12.60;99.90;;;;;;4951661;28;20556;-59
2022/10/22 05:28:42;;;;;;;14.60;8.85;;;12.60;99.90;;;;;;4950725;28;20053;-59
2022/10/22 05:31:10;;;;;;;13.93;8.90;;;12.60;99.90;;;;;;4950164;28;20047;-59
2022/10/22 05:33:36;;;;;;;13.50;9.25;;;12.60;99.90;;;;;;4951344;28;20074;-59
2022/10/22 05:36:04;;;;;;;15.57;9.68;;;12.60;99.90;;;;;;4955070;28;20541;-59
2022/10/22 05:38:32;;;;;;;16.33;9.82;;;12.60;99.90;;;;;;4954929;28;20054;-59
2022/10/22 05:41:06;;;;;;;13.80;9.40;;;12.50;99.90;;;;;;4954707;28;20042;-58
2022/10/22 05:43:32;;;;;;;16.92;9.30;;;12.50;99.90;;;;;;4950236;28;20072;-59
2022/10/22 05:46:07;;;;;;;18.52;10.00;;;12.50;99.90;;;;;;4950828;28;20078;-59
2022/10/22 05:48:33;;;;;;;17.17;9.43;;;12.50;99.90;;;;;;4951418;28;21028;-59
2022/10/22 05:51:08;;;;;;;18.75;9.80;;;12.50;99.90;;;;;;4950090;28;20064;-59
2022/10/22 05:53:37;;;;;;;17.90;10.00;;;12.50;99.90;;;;;;4950793;28;20049;-58
2022/10/22 05:56:09;;;;;;;22.15;9.73;;;12.50;99.90;;;;;;4950912;28;20046;-59
2022/10/22 05:58:35;;;;;;;;;;;12.50;99.90;;;;;;4951657;28;20047;-59
2022/10/22 06:01:08;;;;;;;16.65;10.30;;;12.50;99.90;;;;;;4949157;28;19919;-58
2022/10/22 06:03:34;;;;;;;16.27;9.65;;;12.50;99.90;;;;;;4951287;28;20143;-59
2022/10/22 06:06:02;;;;;;;18.27;9.60;;;12.50;99.90;;;;;;4948000;28;20059;-59
2022/10/22 06:08:29;;;;;;;18.50;9.77;;;12.50;99.90;;;;;;4948669;28;20043;-57
2022/10/22 06:10:55;;;;;;;16.60;10.30;;;12.60;99.90;;;;;;4954169;28;20068;-58
2022/10/22 06:13:21;;;;;;;23.85;9.90;;;12.60;99.90;;;;;;4965438;28;20055;-59
2022/10/22 06:15:49;;;;;;;18.83;10.27;;;12.60;99.90;;;;;;4949245;28;20047;-58
2022/10/22 06:18:15;;;;;;;17.83;10.57;;;12.60;99.90;;;;;;4947340;28;20059;-59
2022/10/22 06:20:42;;;;;;;19.20;10.15;;;12.60;99.90;;;;;;4952215;28;20050;-59
2022/10/22 06:23:08;;;;;;;16.42;10.10;;;12.60;99.90;;;;;;4952055;28;20544;-59
2022/10/22 06:25:34;;;;;;;15.32;10.50;;;12.60;99.90;;;;;;4956455;28;20047;-59
2022/10/22 06:28:00;;;;;;;17.88;9.77;;;12.60;99.90;;;;;;4951495;28;20054;-59
2022/10/22 06:30:25;;;;;;;21.48;10.50;;;12.60;99.90;;;;;;4948822;28;20042;-59
2022/10/22 06:32:51;;;;;;;20.88;10.52;;;12.60;99.90;;;;;;4953660;28;20737;-59
2022/10/22 06:35:17;;;;;;;19.80;9.98;;;12.60;99.90;;;;;;4948484;28;20047;-59
2022/10/22 06:37:43;;;;;;;22.45;10.43;;;12.60;99.90;;;;;;4950962;28;20442;-59
2022/10/22 06:40:09;;;;;;;16.08;9.85;;;12.60;99.90;;;;;;4948448;28;20043;-59
2022/10/22 06:42:35;;;;;;;18.88;9.65;;;12.70;99.90;;;;;;4950992;28;20057;-59
2022/10/22 06:45:01;;;;;;;24.92;11.07;;;12.70;99.90;;;;;;4947496;28;20047;-59
2022/10/22 06:47:27;;;;;;;17.35;9.85;;;12.70;99.90;;;;;;4954465;28;20051;-59
2022/10/22 06:49:52;;;;;;;25.98;10.20;;;12.70;99.90;;;;;;4949852;28;20065;-58
2022/10/22 06:52:18;;;;;;;17.25;10.35;;;12.70;99.90;;;;;;4946252;28;20135;-59
2022/10/22 06:54:44;;;;;;;21.83;10.40;;;12.70;99.90;;;;;;4944332;28;20051;-58
2022/10/22 06:57:10;;;;;;;20.63;10.77;;;12.80;99.90;;;;;;4951389;28;20046;-58
2022/10/22 06:59:36;;;;;;;17.73;9.50;;;12.80;99.90;;;;;;4949995;28;20046;-59
2022/10/22 07:02:02;;;;;;;23.75;10.75;;;12.80;99.90;;;;;;4947477;28;20049;-59
2022/10/22 07:04:27;;;;;;;18.98;9.60;;;12.90;99.90;;;;;;4945971;28;20055;-58
2022/10/22 07:06:56;;;;;;;16.45;9.88;;;12.90;99.90;;;;;;4944465;28;20180;-58
2022/10/22 07:09:22;;;;;;;18.77;9.73;;;12.90;99.90;;;;;;4947098;28;20047;-59
2022/10/22 07:11:47;;;;;;;20.95;8.95;;;13.00;99.90;;;;;;4946012;28;20539;-59
2022/10/22 07:14:14;;;;;;;14.65;9.38;;;13.00;99.90;;;;;;4945310;28;20046;-59
2022/10/22 07:16:44;;;;;;;22.33;9.85;;;13.00;99.90;;;;;;4944987;28;20090;-59
2022/10/22 07:19:10;;;;;;;21.98;9.40;;;13.00;99.90;;;;;;4953264;28;20489;-59
2022/10/22 07:21:36;;;;;;;16.60;10.02;;;13.10;99.90;;;;;;4954637;28;20050;-59
2022/10/22 07:24:02;;;;;;;17.40;8.90;;;13.10;99.90;;;;;;4955039;28;20039;-59
2022/10/22 07:26:31;;;;;;;18.50;8.60;;;13.10;99.90;;;;;;4952285;28;20051;-59
2022/10/22 07:28:59;;;;;;;17.85;9.60;;;13.20;99.90;;;;;;4951433;28;20049;-59
2022/10/22 07:31:25;;;;;;;18.83;9.32;;;13.20;99.90;;;;;;4946047;28;20079;-59
2022/10/22 07:33:51;;;;;;;18.48;9.15;;;13.20;99.90;;;;;;4944640;28;20094;-57
2022/10/22 07:36:17;;;;;;;14.55;8.30;;;13.20;99.90;;;;;;4943532;28;20050;-59
2022/10/22 07:38:51;;;;;;;17.40;8.07;;;13.30;99.90;;;;;;4944093;28;20881;-59
2022/10/22 07:41:17;;;;;;;18.52;8.65;;;13.30;99.90;;;;;;4945676;28;20200;-59
2022/10/22 07:43:44;;;;;;;14.07;8.65;;;13.30;99.90;;;;;;4945418;28;20560;-58
2022/10/22 07:46:10;;;;;;;15.75;8.00;;;13.40;99.90;;;;;;4946434;28;20106;-59
2022/10/22 07:48:36;;;;;;;15.07;7.63;;;13.40;99.90;;;;;;4946501;28;20063;-59
2022/10/22 07:51:03;;;;;;;19.67;8.18;;;13.40;99.90;;;;;;4948076;28;20039;-59
2022/10/22 07:53:28;;;;;;;15.15;8.45;;;13.40;99.90;;;;;;4947398;28;20047;-58
2022/10/22 07:55:55;;;;;;;16.58;8.10;;;13.50;99.90;;;;;;4947645;28;20058;-59
2022/10/22 07:58:22;;;;;;;18.63;7.57;;;13.50;99.90;;;;;;4947244;28;20059;-58
2022/10/22 08:00:49;;;;;;;15.38;7.72;;;13.50;99.90;;;;;;4949944;28;20050;-58
2022/10/22 08:03:16;;;;;;;16.00;7.30;;;13.50;99.90;;;;;;4947410;28;20054;-57
2022/10/22 08:05:43;;;;;;;14.93;7.50;;;13.50;99.90;;;;;;4946557;28;20433;-58
2022/10/22 08:08:14;;;;;;;16.08;7.57;;;13.50;99.90;;;;;;4949038;28;20142;-59
2022/10/22 08:10:41;;;;;;;16.38;7.20;;;13.50;99.90;;;;;;4946844;28;20452;-59
2022/10/22 08:13:07;;;;;;;16.15;7.72;;;13.60;99.90;;;;;;4947558;28;20098;-59
2022/10/22 08:15:33;;;;;;;21.20;7.70;;;13.60;99.90;;;;;;4948197;28;20086;-59
2022/10/22 08:17:59;;;;;;;17.10;7.03;;;13.60;99.90;;;;;;4947059;28;20061;-59
2022/10/22 08:20:25;;;;;;;16.58;7.65;;;13.60;99.90;;;;;;4948039;28;20054;-59
2022/10/22 08:22:51;;;;;;;15.65;7.60;;;13.60;99.90;;;;;;4947896;28;20110;-59
2022/10/22 08:25:17;;;;;;;14.23;7.40;;;13.70;99.90;;;;;;4947600;28;20409;-59
2022/10/22 08:27:44;;;;;;;20.77;7.55;;;13.70;99.90;;;;;;4947732;28;20043;-58
2022/10/22 08:30:11;;;;;;;16.63;7.10;;;13.70;99.90;;;;;;4946938;28;20042;-59
2022/10/22 08:32:37;;;;;;;15.68;6.63;;;13.80;99.90;;;;;;4949413;28;20070;-59
2022/10/22 08:35:03;;;;;;;15.80;6.38;;;13.80;99.90;;;;;;4946585;28;20137;-58
2022/10/22 08:37:29;;;;;;;15.15;7.32;;;13.90;99.90;;;;;;4947402;28;20074;-59
2022/10/22 08:39:55;;;;;;;14.27;6.57;;;13.90;99.90;;;;;;4946512;28;20413;-59
2022/10/22 08:42:57;;;;;;;17.92;6.28;;;14.00;99.90;;;;;;4947020;28;20043;-59
2022/10/22 08:45:40;;;;;;;12.50;6.10;;;14.00;99.90;;;;;;4940382;28;20071;-59
2022/10/22 08:48:37;;;;;;;14.45;6.32;;;14.10;99.90;;;;;;4946063;28;20627;-59
2022/10/22 08:51:03;;;;;;;14.82;7.70;;;14.20;99.90;;;;;;4945810;28;20043;-58
2022/10/22 08:53:41;;;;;;;21.85;8.40;;;14.30;99.90;;;;;;4947812;28;20047;-58
2022/10/22 08:56:07;;;;;;;17.77;9.20;;;14.40;99.90;;;;;;4947837;28;20856;-59
2022/10/22 08:58:41;;;;;;;21.83;9.50;;;14.50;99.90;;;;;;4948039;28;20046;-59
2022/10/22 09:01:32;;;;;;;21.27;8.80;;;14.60;99.90;;;;;;4948365;28;20104;-59
2022/10/22 09:04:10;;;;;;;17.35;8.27;;;14.80;99.90;;;;;;4947901;28;20045;-59
2022/10/22 09:06:40;;;;;;;19.20;9.02;;;14.90;99.90;;;;;;4945158;28;20583;-59
2022/10/22 09:09:12;;;;;;;15.38;7.45;;;15.10;99.90;;;;;;4950904;28;20051;-59
2022/10/22 09:11:39;;;;;;;;;;;15.30;99.90;;;;;;4948571;28;20043;-60
2022/10/22 09:14:11;;;;;;;17.02;6.90;;;15.50;99.90;;;;;;4946592;28;19927;-58
2022/10/22 09:17:12;;;;;;;17.17;8.65;;;15.50;99.90;;;;;;4947185;28;20051;-59
2022/10/22 09:19:58;;;;;;;16.67;8.20;;;15.70;99.90;;;;;;4945427;28;20261;-59
2022/10/22 09:22:34;;;;;;;12.00;5.32;;;15.80;99.90;;;;;;4946169;28;20608;-60
2022/10/22 09:25:21;;;;;;;19.20;5.95;;;15.90;99.90;;;;;;4947357;28;20408;-60
2022/10/22 09:27:49;;;;;;;13.30;5.45;;;16.00;99.90;;;;;;4948104;28;20125;-60
2022/10/22 09:30:21;;;;;;;14.48;5.50;;;16.00;99.90;;;;;;4946921;28;20480;-59
2022/10/22 09:32:59;;;;;;;21.50;6.05;;;16.10;99.90;;;;;;4946849;28;20051;-59
2022/10/22 09:35:25;;;;;;;17.50;6.07;;;16.10;99.90;;;;;;4945871;28;20077;-59
2022/10/22 09:37:54;;;;;;;12.15;4.68;;;16.20;99.90;;;;;;4946170;28;20237;-59
2022/10/22 09:40:20;;;;;;;13.32;5.00;;;16.30;99.90;;;;;;4947780;28;20043;-59
2022/10/22 09:42:46;;;;;;;18.20;5.40;;;16.30;99.90;;;;;;4945979;28;20089;-59
2022/10/22 09:45:20;;;;;;;18.52;5.97;;;16.30;99.90;;;;;;4944416;28;20057;-59
2022/10/22 09:47:47;;;;;;;18.52;5.60;;;16.30;99.90;;;;;;4946289;28;20150;-59
2022/10/22 09:50:25;;;;;;;15.90;6.20;;;16.20;99.90;;;;;;4944508;28;20509;-59
2022/10/22 09:52:59;;;;;;;17.27;6.47;;;16.20;99.90;;;;;;4947519;28;20419;-60
2022/10/22 09:55:26;;;;;;;16.98;5.28;;;16.20;99.90;;;;;;4946259;28;20054;-59
2022/10/22 09:57:54;;;;;;;12.70;5.45;;;16.20;99.90;;;;;;4954023;28;20169;-60
2022/10/22 10:00:20;;;;;;;12.50;5.65;;;16.30;99.90;;;;;;4949606;28;20059;-59
2022/10/22 10:02:46;;;;;;;10.75;5.63;;;16.30;99.90;;;;;;4948202;28;20054;-60
2022/10/22 10:05:24;;;;;;;16.50;5.35;;;16.30;99.90;;;;;;4944983;28;20490;-59
2022/10/22 10:07:50;;;;;;;12.65;5.45;;;16.30;99.90;;;;;;4952126;28;20062;-60
2022/10/22 10:10:24;;;;;;;22.02;6.97;;;16.30;99.90;;;;;;4947334;28;21776;-59
2022/10/22 10:13:13;;;;;;;15.40;4.90;;;16.30;99.90;;;;;;4947695;28;20101;-60
2022/10/22 10:15:54;;;;;;;19.95;7.55;;;16.30;99.90;;;;;;4945007;28;20085;-59
2022/10/22 10:18:32;;;;;;;14.80;5.78;;;16.40;99.90;;;;;;4965833;28;20113;-58
2022/10/22 10:21:19;;;;;;;16.83;4.90;;;16.40;99.90;;;;;;4942223;28;20130;-58
2022/10/22 10:24:11;;;;;;;17.10;5.78;;;16.40;99.90;;;;;;4948130;28;20529;-59
2022/10/22 10:26:52;;;;;;;15.63;4.67;;;16.40;99.90;;;;;;4951255;28;20047;-59
2022/10/22 10:29:27;;;;;;;14.55;5.93;;;16.40;99.90;;;;;;4947232;28;20314;-59
2022/10/22 10:32:11;;;;;;;14.77;5.70;;;16.40;99.90;;;;;;4947311;28;20047;-59
2022/10/22 10:34:40;;;;;;;14.57;5.78;;;16.40;99.90;;;;;;4949366;28;20196;-59
2022/10/22 10:37:23;;;;;;;14.52;6.03;;;16.50;99.90;;;;;;4944768;28;20050;-59
2022/10/22 10:40:14;;;;;;;16.48;6.75;;;16.50;99.90;;;;;;4946057;28;20135;-60
2022/10/22 10:43:09;;;;;;;17.25;6.38;;;16.50;99.90;;;;;;4947473;28;20054;-59
2022/10/22 10:45:52;;;;;;;12.50;5.43;;;16.50;99.90;;;;;;4916010;28;20133;-60
2022/10/22 10:48:38;;;;;;;18.95;6.65;;;16.40;99.90;;;;;;4951628;28;20054;-60
2022/10/22 10:51:34;;;;;;;17.50;7.55;;;16.40;99.90;;;;;;4947833;28;20038;-59
2022/10/22 10:54:38;;;;;;;12.23;6.00;;;16.40;99.90;;;;;;4949056;28;20491;-60
2022/10/22 10:57:03;;;;;;;17.50;5.70;;;16.40;99.90;;;;;;4948609;28;20065;-59
2022/10/22 10:59:53;;;;;;;17.30;5.65;;;16.30;99.90;;;;;;4944432;28;20075;-59
2022/10/22 11:02:56;;;;;;;16.40;5.80;;;16.30;99.90;;;;;;4948685;28;20478;-64
2022/10/22 11:05:38;;;;;;;19.45;6.60;;;16.30;99.90;;;;;;4931731;28;20502;-64
2022/10/22 11:08:31;;;;;;;19.52;5.25;;;16.20;99.90;;;;;;4942738;28;20531;-64
2022/10/22 11:11:06;;;;;;;15.77;5.15;;;16.20;99.90;;;;;;4931536;28;20110;-65
2022/10/22 11:14:05;;;;;;;14.48;5.03;;;16.20;99.90;;;;;;4943757;28;20501;-64
2022/10/22 11:16:41;;;;;;;16.63;5.40;;;16.30;99.90;;;;;;4901852;28;20065;-65
2022/10/22 11:19:45;;;;;;;11.93;5.40;;;16.30;99.90;;;;;;4951836;28;20046;-65
2022/10/22 11:22:28;;;;;;;14.13;4.80;;;16.40;99.90;;;;;;4864014;29;20055;-65
2022/10/22 11:24:56;;;;;;;13.38;5.03;;;16.40;99.90;;;;;;4936285;28;20059;-66
2022/10/22 11:27:32;;;;;;;12.82;6.30;;;16.40;99.90;;;;;;4945787;28;20050;-68
2022/10/22 11:30:08;;;;;;;33.20;12.50;;;16.40;99.90;;;;;;4937597;28;20745;-67
2022/10/22 11:32:35;;;;;;;16.65;10.10;;;16.40;99.90;;;;;;4935306;28;20059;-68
2022/10/22 11:35:04;;;;;;;24.05;10.75;;;16.50;99.90;;;;;;4942537;28;20050;-67
2022/10/22 11:37:34;;;;;;;19.38;9.73;;;16.70;99.90;;;;;;4912436;28;20085;-67
2022/10/22 11:40:29;;;;;;;15.88;7.07;;;16.90;99.90;;;;;;4939132;28;20058;-67
2022/10/22 11:42:58;;;;;;;16.02;8.48;;;16.90;99.90;;;;;;4906822;28;20173;-67
2022/10/22 11:45:23;;;;;;;12.40;5.88;;;16.90;99.90;;;;;;4939391;28;20051;-67
2022/10/22 11:47:55;;;;;;;11.35;6.28;;;16.90;99.90;;;;;;4944284;28;20046;-66
2022/10/22 11:50:51;;;;;;;14.23;6.63;;;16.90;99.90;;;;;;4950773;28;20051;-66
2022/10/22 11:53:36;;;;;;;14.45;6.28;;;16.90;99.90;;;;;;4951393;28;20138;-66
2022/10/22 11:56:09;;;;;;;18.77;7.00;;;16.80;99.90;;;;;;4952741;28;20821;-68
2022/10/22 11:58:43;;;;;;;17.60;7.05;;;16.70;99.90;;;;;;4946225;28;20150;-67
2022/10/22 12:01:09;;;;;;;13.25;6.07;;;16.60;99.90;;;;;;4948292;28;20279;-67
2022/10/22 12:03:46;;;;;;;12.25;6.05;;;16.60;99.90;;;;;;4958338;28;20054;-67
2022/10/22 12:06:14;;;;;;;11.98;5.80;;;16.60;99.90;;;;;;4947787;28;21116;-66
2022/10/22 12:09:03;;;;;;;13.48;6.38;;;16.50;99.90;;;;;;4947930;28;20050;-68
2022/10/22 12:11:39;;;;;;;12.60;6.00;;;16.50;99.90;;;;;;4943836;28;20046;-66
2022/10/22 12:14:25;;;;;;;12.43;5.90;;;16.50;99.90;;;;;;4936039;28;21546;-68
2022/10/22 12:17:06;;;;;;;12.00;5.65;;;16.50;99.90;;;;;;4944735;28;20101;-67
2022/10/22 12:19:38;;;;;;;12.02;5.82;;;16.40;99.90;;;;;;4944796;28;20078;-67
2022/10/22 12:22:39;;;;;;;9.15;5.95;;;16.40;99.90;;;;;;4952445;28;20055;-68
2022/10/22 12:25:20;;;;;;;8.93;5.57;;;16.30;99.90;;;;;;4907062;28;20057;-68
2022/10/22 12:27:50;;;;;;;16.20;6.57;;;16.30;99.90;;;;;;4944084;28;20417;-67
2022/10/22 12:30:35;;;;;;;14.25;6.03;;;16.40;99.90;;;;;;4942611;28;20047;-69
2022/10/22 12:33:05;;;;;;;16.92;6.28;;;16.40;99.90;;;;;;4936239;28;20073;-68
2022/10/22 12:35:41;;;;;;;14.02;6.07;;;16.50;99.90;;;;;;4945534;28;20047;-67
2022/10/22 12:38:13;;;;;;;15.57;6.10;;;16.40;99.90;;;;;;4945884;28;20057;-66
2022/10/22 12:40:40;;;;;;;12.38;5.88;;;16.50;99.90;;;;;;4943561;28;20968;-64
2022/10/22 12:43:13;;;;;;;13.00;5.43;;;16.40;99.90;;;;;;4936434;28;20068;-67
2022/10/22 12:45:42;;;;;;;15.00;5.60;;;16.50;99.90;;;;;;4936560;28;20043;-67
2022/10/22 12:48:18;;;;;;;20.08;4.93;;;16.40;99.90;;;;;;4948089;28;20141;-68
2022/10/22 12:50:49;;;;;;;13.75;4.82;;;16.50;99.90;;;;;;4942171;28;20153;-68
2022/10/22 12:53:23;;;;;;;16.40;5.22;;;16.40;99.90;;;;;;4944569;28;20083;-67
2022/10/22 12:55:52;;;;;;;13.18;5.07;;;16.50;99.90;;;;;;4950167;28;20053;-68
2022/10/22 12:58:33;;;;;;;12.75;4.00;;;16.50;99.90;;;;;;4943046;28;20051;-67